Time;durP1;ratioP1;P1;durP2;ratioP2;P2;SDS_P1;SDS_P2;PMS_P1;PMS_P2;Temp;Humidity;BMP_temperature;BMP_pressure;BME280_temperature;BME280_humidity;BME280_pressure;Samples;Min_cycle;Max_cycle;Signal;HPM_P1;HPM_P2
2023/07/22 00:00:55;;;;;;;1.80;1.70;;;22.50;61.40;;;;;;5044603;28;20045;-77
2023/07/22 00:03:21;;;;;;;1.50;1.40;;;22.50;61.70;;;;;;5050215;28;20052;-77
2023/07/22 00:05:46;;;;;;;1.80;1.70;;;22.50;61.70;;;;;;5026602;28;20037;-78
2023/07/22 00:08:12;;;;;;;1.60;1.50;;;22.50;61.70;;;;;;5029714;28;20055;-77
2023/07/22 00:10:42;;;;;;;1.70;1.60;;;22.50;62.60;;;;;;5040641;28;20495;-77
2023/07/22 00:13:07;;;;;;;1.70;1.60;;;22.50;62.00;;;;;;5033722;28;20677;-78
2023/07/22 00:15:33;;;;;;;1.65;1.55;;;22.40;61.90;;;;;;5030395;28;20049;-78
2023/07/22 00:17:59;;;;;;;1.73;1.63;;;22.50;62.00;;;;;;5040674;28;20419;-78
2023/07/22 00:20:25;;;;;;;1.40;1.40;;;22.50;62.10;;;;;;5059040;28;20045;-78
2023/07/22 00:22:51;;;;;;;2.13;1.33;;;22.40;62.00;;;;;;5034682;28;20056;-78
2023/07/22 00:25:17;;;;;;;1.45;1.45;;;22.40;62.10;;;;;;5042020;28;20049;-78
2023/07/22 00:27:42;;;;;;;1.60;1.50;;;22.40;62.10;;;;;;5004235;28;20572;-78
2023/07/22 00:30:09;;;;;;;1.83;1.73;;;22.40;62.10;;;;;;5037805;28;20042;-78
2023/07/22 00:32:36;;;;;;;1.50;1.40;;;22.40;62.20;;;;;;5019937;28;20418;-78
2023/07/22 00:35:04;;;;;;;1.23;1.23;;;22.50;62.30;;;;;;5034727;28;20141;-78
2023/07/22 00:37:29;;;;;;;1.52;1.42;;;22.40;62.30;;;;;;5044370;28;20043;-78
2023/07/22 00:39:55;;;;;;;1.83;1.73;;;22.40;62.30;;;;;;5042930;28;20037;-78
2023/07/22 00:42:21;;;;;;;1.40;1.40;;;22.40;62.40;;;;;;5027852;28;20053;-77
2023/07/22 00:44:46;;;;;;;1.48;1.38;;;22.40;62.40;;;;;;5024623;28;20499;-78
2023/07/22 00:47:12;;;;;;;1.55;1.55;;;22.40;62.40;;;;;;5020722;28;20099;-78
2023/07/22 00:49:38;;;;;;;1.67;1.55;;;22.40;62.40;;;;;;5027882;28;20032;-78
2023/07/22 00:52:04;;;;;;;1.48;1.40;;;22.40;62.50;;;;;;5020478;28;20049;-78
2023/07/22 00:54:30;;;;;;;1.60;1.50;;;22.40;62.50;;;;;;5033808;28;20029;-78
2023/07/22 00:56:56;;;;;;;1.48;1.38;;;22.40;62.50;;;;;;5055351;28;20046;-78
2023/07/22 00:59:22;;;;;;;1.52;1.48;;;22.40;62.60;;;;;;5043432;28;20041;-78
2023/07/22 01:01:47;;;;;;;1.25;1.17;;;22.40;62.60;;;;;;5034029;28;20044;-77
2023/07/22 01:04:14;;;;;;;3.33;1.70;;;22.40;62.60;;;;;;5022721;28;20088;-78
2023/07/22 01:06:39;;;;;;;1.33;1.23;;;22.40;62.70;;;;;;5023151;28;20418;-78
2023/07/22 01:09:07;;;;;;;1.42;1.33;;;22.40;62.60;;;;;;5033051;28;20120;-77
2023/07/22 01:11:32;;;;;;;1.60;1.40;;;22.40;62.70;;;;;;5042586;28;20080;-78
2023/07/22 01:13:59;;;;;;;1.42;1.33;;;22.40;62.80;;;;;;5042740;28;20096;-78
2023/07/22 01:16:26;;;;;;;0.98;0.90;;;22.40;62.80;;;;;;5037986;28;20049;-77
2023/07/22 01:18:53;;;;;;;1.08;1.08;;;22.40;62.80;;;;;;5031728;28;20045;-78
2023/07/22 01:21:18;;;;;;;1.30;1.25;;;22.40;62.80;;;;;;5032033;28;20042;-77
2023/07/22 01:23:44;;;;;;;1.25;1.25;;;22.40;62.80;;;;;;5039494;28;20033;-77
2023/07/22 01:26:09;;;;;;;1.20;1.20;;;22.40;63.60;;;;;;5051004;28;20041;-77
2023/07/22 01:28:35;;;;;;;1.08;1.08;;;22.40;62.80;;;;;;5015075;28;20029;-77
2023/07/22 01:31:01;;;;;;;1.05;1.05;;;22.40;62.90;;;;;;5030564;28;20406;-77
2023/07/22 01:33:27;;;;;;;1.30;1.30;;;22.40;62.90;;;;;;5043927;28;20523;-77
2023/07/22 01:35:53;;;;;;;1.13;1.13;;;22.40;62.80;;;;;;5031328;28;20053;-77
2023/07/22 01:38:19;;;;;;;2.03;0.93;;;22.40;62.90;;;;;;5031754;28;20058;-77
2023/07/22 01:40:44;;;;;;;1.10;1.08;;;22.40;63.00;;;;;;5025145;28;20044;-77
2023/07/22 01:43:10;;;;;;;1.30;1.15;;;22.40;63.00;;;;;;5026708;28;20042;-77
2023/07/22 01:45:36;;;;;;;1.05;1.05;;;22.40;63.00;;;;;;5023539;28;20483;-77
2023/07/22 01:48:02;;;;;;;1.33;1.33;;;22.40;63.80;;;;;;5019415;28;20041;-78
2023/07/22 01:50:28;;;;;;;1.30;1.20;;;22.40;63.10;;;;;;5024073;28;20023;-77
2023/07/22 01:52:53;;;;;;;1.58;1.48;;;22.40;63.20;;;;;;5017166;28;20034;-77
2023/07/22 01:55:19;;;;;;;1.13;1.13;;;22.40;63.20;;;;;;5025638;28;20037;-77
2023/07/22 01:57:44;;;;;;;1.27;1.27;;;22.40;63.30;;;;;;5027690;28;20138;-78
2023/07/22 02:00:10;;;;;;;1.40;1.40;;;22.40;63.40;;;;;;5041592;28;20038;-77
2023/07/22 02:02:37;;;;;;;1.00;1.00;;;22.30;63.20;;;;;;5028117;28;20053;-78
2023/07/22 02:05:02;;;;;;;1.35;1.25;;;22.40;63.30;;;;;;5054545;28;20136;-77
2023/07/22 02:07:29;;;;;;;1.20;1.20;;;22.30;63.30;;;;;;5034781;28;20523;-77
2023/07/22 02:09:54;;;;;;;1.00;1.00;;;22.40;63.40;;;;;;5024266;28;20074;-78
2023/07/22 02:12:20;;;;;;;1.13;1.10;;;22.30;63.40;;;;;;5032816;28;20058;-77
2023/07/22 02:14:46;;;;;;;1.23;1.10;;;22.40;63.50;;;;;;5030669;28;20424;-78
2023/07/22 02:17:11;;;;;;;0.80;0.80;;;22.30;63.50;;;;;;5035658;28;20033;-77
2023/07/22 02:19:37;;;;;;;1.55;1.50;;;22.30;63.50;;;;;;5033840;28;20166;-78
2023/07/22 02:22:04;;;;;;;1.17;1.08;;;22.30;63.50;;;;;;5023846;28;20132;-78
2023/07/22 02:24:30;;;;;;;1.20;1.20;;;22.30;63.50;;;;;;5034787;28;20041;-78
2023/07/22 02:26:55;;;;;;;1.20;0.88;;;22.40;63.50;;;;;;5026208;28;20068;-78
2023/07/22 02:29:21;;;;;;;0.90;0.90;;;22.40;63.50;;;;;;5028842;28;20041;-78
2023/07/22 02:31:46;;;;;;;1.70;1.10;;;22.40;63.50;;;;;;5029054;28;20123;-78
2023/07/22 02:34:12;;;;;;;2.33;1.50;;;22.40;63.40;;;;;;5019762;28;20045;-78
2023/07/22 02:36:37;;;;;;;3.55;1.33;;;22.40;63.60;;;;;;5030432;28;20501;-77
2023/07/22 02:39:03;;;;;;;1.20;1.20;;;22.40;63.50;;;;;;5027601;28;20056;-78
2023/07/22 02:41:29;;;;;;;1.45;1.40;;;22.40;63.60;;;;;;5036907;28;20502;-78
2023/07/22 02:43:54;;;;;;;1.70;1.45;;;22.40;63.60;;;;;;5030681;28;20041;-77
2023/07/22 02:46:20;;;;;;;1.08;1.08;;;22.30;63.70;;;;;;5017128;28;20447;-77
2023/07/22 02:48:45;;;;;;;1.55;1.45;;;22.40;63.50;;;;;;5021957;28;20175;-77
2023/07/22 02:51:11;;;;;;;1.48;1.38;;;22.30;63.60;;;;;;5031144;28;20546;-78
2023/07/22 02:53:37;;;;;;;1.20;1.10;;;22.30;63.50;;;;;;5031523;28;20060;-78
2023/07/22 02:56:03;;;;;;;1.40;1.30;;;22.40;63.40;;;;;;5020599;28;20276;-77
2023/07/22 02:58:28;;;;;;;1.27;1.17;;;22.40;63.50;;;;;;5031515;28;20041;-78
2023/07/22 03:00:54;;;;;;;1.20;1.10;;;22.40;63.50;;;;;;5020785;28;20052;-77
2023/07/22 03:03:19;;;;;;;2.15;1.30;;;22.40;63.50;;;;;;5026541;28;20046;-78
2023/07/22 03:05:45;;;;;;;1.90;1.27;;;22.40;63.70;;;;;;5021933;28;20553;-77
2023/07/22 03:08:11;;;;;;;1.50;1.40;;;22.40;63.50;;;;;;5020980;28;20128;-78
2023/07/22 03:10:36;;;;;;;5.50;1.02;;;22.40;63.50;;;;;;5028803;28;20418;-78
2023/07/22 03:13:03;;;;;;;1.10;1.00;;;22.40;63.60;;;;;;5025503;28;20061;-77
2023/07/22 03:15:29;;;;;;;1.08;1.08;;;22.40;63.50;;;;;;5024456;28;20042;-77
2023/07/22 03:17:59;;;;;;;2.15;1.60;;;22.40;63.60;;;;;;5015501;28;20076;-78
2023/07/22 03:20:25;;;;;;;1.27;1.17;;;22.40;63.60;;;;;;5037690;28;20029;-78
2023/07/22 03:22:50;;;;;;;1.20;1.10;;;22.40;63.60;;;;;;5027765;28;20112;-78
2023/07/22 03:25:20;;;;;;;1.10;1.10;;;22.40;63.90;;;;;;5022594;28;20120;-78
2023/07/22 03:27:45;;;;;;;1.00;1.00;;;22.30;63.60;;;;;;5027206;28;20525;-77
2023/07/22 03:30:14;;;;;;;1.08;0.80;;;22.40;63.80;;;;;;5012589;28;20037;-78
2023/07/22 03:32:41;;;;;;;0.90;0.90;;;22.40;64.00;;;;;;5022364;28;20377;-78
2023/07/22 03:35:08;;;;;;;1.00;1.00;;;22.40;63.80;;;;;;4994605;28;20069;-77
2023/07/22 03:37:35;;;;;;;1.13;1.13;;;22.40;63.90;;;;;;5025920;28;20052;-77
2023/07/22 03:40:01;;;;;;;1.17;1.10;;;22.40;64.10;;;;;;5030808;28;20135;-78
2023/07/22 03:42:27;;;;;;;1.08;1.02;;;22.40;64.00;;;;;;5021678;28;20136;-78
2023/07/22 03:44:52;;;;;;;0.85;0.85;;;22.40;64.10;;;;;;5019397;28;20042;-77
2023/07/22 03:47:19;;;;;;;1.00;1.00;;;22.40;64.20;;;;;;5035627;28;20826;-77
2023/07/22 03:49:45;;;;;;;0.75;0.75;;;22.40;64.20;;;;;;5018301;28;20040;-78
2023/07/22 03:52:14;;;;;;;1.00;1.00;;;22.40;64.10;;;;;;5014723;28;20045;-78
2023/07/22 03:54:39;;;;;;;1.00;1.00;;;22.40;64.00;;;;;;5019231;28;20570;-78
2023/07/22 03:57:06;;;;;;;2.58;0.93;;;22.40;64.10;;;;;;5018857;28;20054;-77
2023/07/22 03:59:31;;;;;;;0.80;0.80;;;22.40;64.10;;;;;;5022695;28;20049;-77
2023/07/22 04:01:57;;;;;;;0.98;0.98;;;22.40;64.20;;;;;;5024520;28;20053;-78
2023/07/22 04:04:22;;;;;;;1.00;1.00;;;22.40;64.20;;;;;;5027206;28;20034;-78
2023/07/22 04:06:48;;;;;;;0.82;0.82;;;22.40;64.10;;;;;;5028993;28;20034;-77
2023/07/22 04:09:14;;;;;;;0.93;0.93;;;22.40;64.20;;;;;;5023506;28;20041;-77
2023/07/22 04:11:39;;;;;;;1.13;0.90;;;22.40;64.10;;;;;;5033047;28;20507;-78
2023/07/22 04:14:05;;;;;;;1.20;1.00;;;22.40;64.20;;;;;;5031453;28;20098;-77
2023/07/22 04:16:31;;;;;;;1.50;0.80;;;22.40;64.20;;;;;;5036835;28;20045;-77
2023/07/22 04:18:56;;;;;;;0.82;0.82;;;22.40;63.90;;;;;;5032496;28;20047;-77
2023/07/22 04:21:22;;;;;;;0.77;0.77;;;22.40;63.90;;;;;;5028302;28;20430;-77
2023/07/22 04:23:49;;;;;;;1.13;0.90;;;22.40;64.30;;;;;;5019373;28;20140;-78
2023/07/22 04:26:14;;;;;;;0.70;0.70;;;22.40;64.20;;;;;;5031320;28;20036;-78
2023/07/22 04:28:40;;;;;;;1.08;0.80;;;22.40;64.30;;;;;;5024285;28;20041;-78
2023/07/22 04:31:05;;;;;;;0.75;0.75;;;22.40;64.60;;;;;;5042681;28;20041;-78
2023/07/22 04:33:31;;;;;;;0.73;0.73;;;22.40;64.60;;;;;;5033611;28;20124;-78
2023/07/22 04:35:59;;;;;;;0.90;0.90;;;22.40;64.80;;;;;;5028788;28;20512;-78
2023/07/22 04:38:25;;;;;;;1.05;1.05;;;22.40;64.80;;;;;;5023657;28;20044;-78
2023/07/22 04:40:50;;;;;;;0.80;0.80;;;22.40;65.00;;;;;;5030214;28;20037;-78
2023/07/22 04:43:16;;;;;;;0.88;0.88;;;22.40;65.00;;;;;;5027511;28;20068;-77
2023/07/22 04:45:44;;;;;;;0.93;0.93;;;22.40;64.90;;;;;;5029958;28;20041;-77
2023/07/22 04:48:10;;;;;;;0.70;0.70;;;22.40;64.90;;;;;;5021008;28;20049;-78
2023/07/22 04:50:37;;;;;;;0.80;0.80;;;22.40;64.90;;;;;;5024935;28;20030;-78
2023/07/22 04:53:03;;;;;;;0.60;0.60;;;22.40;65.00;;;;;;5034254;28;20042;-78
2023/07/22 04:55:29;;;;;;;1.75;0.80;;;22.40;65.00;;;;;;5024830;28;20045;-77
2023/07/22 04:57:55;;;;;;;0.63;0.63;;;22.40;65.10;;;;;;5023193;28;20025;-78
2023/07/22 05:00:22;;;;;;;0.68;0.68;;;22.40;65.00;;;;;;5025759;28;20072;-77
2023/07/22 05:02:48;;;;;;;0.60;0.60;;;22.40;65.10;;;;;;5020961;28;20045;-77
2023/07/22 05:05:13;;;;;;;1.17;0.77;;;22.40;65.80;;;;;;5025089;28;20692;-80
2023/07/22 05:07:39;;;;;;;1.90;1.77;;;22.40;64.20;;;;;;5013890;28;20038;-80
2023/07/22 05:10:07;;;;;;;2.95;1.65;;;20.90;61.40;;;;;;5018574;28;20048;-80
2023/07/22 05:12:32;;;;;;;2.03;1.60;;;19.90;64.80;;;;;;5026793;28;20036;-80
2023/07/22 05:14:58;;;;;;;1.70;1.60;;;19.40;66.60;;;;;;5025423;28;20529;-80
2023/07/22 05:17:25;;;;;;;1.83;1.73;;;19.00;68.00;;;;;;5024056;28;20515;-79
2023/07/22 05:19:50;;;;;;;2.05;1.85;;;18.90;68.80;;;;;;5025481;28;20102;-80
2023/07/22 05:22:16;;;;;;;2.08;1.73;;;18.80;69.20;;;;;;5025631;28;20046;-79
2023/07/22 05:24:42;;;;;;;1.95;1.77;;;18.70;69.70;;;;;;5022258;28;20042;-80
2023/07/22 05:27:08;;;;;;;3.65;2.17;;;18.70;70.90;;;;;;5024929;28;20083;-80
2023/07/22 05:29:33;;;;;;;2.42;1.83;;;18.50;70.50;;;;;;5028727;28;20053;-79
2023/07/22 05:31:59;;;;;;;2.47;2.28;;;18.50;71.10;;;;;;5026276;28;20052;-79
2023/07/22 05:34:24;;;;;;;3.42;2.10;;;18.50;71.30;;;;;;5022102;28;20140;-84
2023/07/22 05:36:50;;;;;;;1.50;1.40;;;18.40;71.40;;;;;;5024716;28;20036;-84
2023/07/22 05:39:17;;;;;;;1.80;1.55;;;18.30;72.10;;;;;;5026129;28;20053;-84
2023/07/22 05:41:43;;;;;;;3.75;1.75;;;18.40;72.00;;;;;;5037112;28;20518;-83
2023/07/22 05:44:08;;;;;;;1.63;1.52;;;18.50;71.80;;;;;;5030703;28;20045;-84
2023/07/22 05:46:34;;;;;;;1.73;1.63;;;18.50;72.10;;;;;;5036003;28;20276;-81
2023/07/22 05:48:59;;;;;;;3.38;1.60;;;18.60;71.60;;;;;;5027564;28;20045;-82
2023/07/22 05:51:25;;;;;;;2.78;1.83;;;18.70;71.10;;;;;;5027095;28;20563;-84
2023/07/22 05:53:51;;;;;;;1.70;1.60;;;18.80;71.00;;;;;;5028064;28;20042;-81
2023/07/22 05:56:16;;;;;;;2.33;1.60;;;18.80;70.90;;;;;;5049993;28;20132;-84
2023/07/22 05:58:42;;;;;;;2.20;1.83;;;18.70;71.20;;;;;;5027480;28;20434;-79
2023/07/22 06:01:07;;;;;;;2.63;1.50;;;18.70;71.20;;;;;;5032582;28;20062;-81
2023/07/22 06:03:33;;;;;;;2.00;1.90;;;18.70;71.40;;;;;;5014394;28;20045;-81
2023/07/22 06:05:59;;;;;;;1.80;1.20;;;18.60;71.90;;;;;;5022518;28;20458;-84
2023/07/22 06:08:25;;;;;;;2.00;1.40;;;18.50;72.00;;;;;;5034948;28;20072;-79
2023/07/22 06:10:51;;;;;;;1.70;1.60;;;18.70;71.90;;;;;;5038266;28;20464;-80
2023/07/22 06:13:17;;;;;;;1.48;1.38;;;19.20;70.30;;;;;;5043507;28;20061;-81
2023/07/22 06:15:42;;;;;;;1.67;1.33;;;19.60;69.60;;;;;;5026999;28;20079;-79
2023/07/22 06:18:08;;;;;;;1.45;1.35;;;19.70;68.20;;;;;;5033664;28;20052;-78
2023/07/22 06:20:35;;;;;;;2.78;1.60;;;19.60;68.40;;;;;;5031488;28;20522;-78
2023/07/22 06:23:01;;;;;;;1.45;1.35;;;19.40;68.90;;;;;;5019262;28;20072;-78
2023/07/22 06:25:28;;;;;;;2.55;1.50;;;19.40;68.80;;;;;;5034825;28;20057;-78
2023/07/22 06:27:54;;;;;;;1.92;1.83;;;19.40;69.10;;;;;;5032673;28;20376;-78
2023/07/22 06:30:19;;;;;;;2.08;1.60;;;19.20;69.60;;;;;;5035758;28;20065;-77
2023/07/22 06:32:45;;;;;;;1.40;1.30;;;19.00;71.10;;;;;;5034871;28;20057;-78
2023/07/22 06:35:11;;;;;;;2.92;1.50;;;19.00;70.50;;;;;;5033344;28;20045;-77
2023/07/22 06:37:36;;;;;;;1.30;1.20;;;19.30;69.60;;;;;;5031924;28;20048;-78
2023/07/22 06:40:03;;;;;;;3.03;1.60;;;19.20;69.70;;;;;;5031839;28;20053;-78
2023/07/22 06:42:29;;;;;;;2.85;1.55;;;19.30;69.70;;;;;;5029506;28;20063;-78
2023/07/22 06:44:55;;;;;;;1.52;1.27;;;19.10;70.10;;;;;;5036173;28;20073;-78
2023/07/22 06:47:20;;;;;;;3.08;1.40;;;19.00;70.60;;;;;;5013956;28;20046;-78
2023/07/22 06:49:46;;;;;;;1.63;1.20;;;19.00;71.30;;;;;;5032452;28;20037;-77
2023/07/22 06:52:11;;;;;;;2.65;1.70;;;18.90;71.60;;;;;;5011017;28;20563;-78
2023/07/22 06:54:37;;;;;;;2.25;1.45;;;19.00;70.90;;;;;;5036508;28;20041;-77
2023/07/22 06:57:03;;;;;;;1.20;1.20;;;19.00;70.90;;;;;;5031010;28;20106;-77
2023/07/22 06:59:29;;;;;;;1.58;1.48;;;19.00;70.50;;;;;;5030793;28;20052;-77
2023/07/22 07:01:54;;;;;;;1.75;1.60;;;18.80;71.30;;;;;;5030360;28;20045;-78
2023/07/22 07:04:20;;;;;;;1.90;1.70;;;18.90;71.60;;;;;;5032613;28;20056;-76
2023/07/22 07:06:46;;;;;;;1.95;1.60;;;19.10;71.70;;;;;;5012480;28;20042;-76
2023/07/22 07:09:12;;;;;;;1.70;1.60;;;19.10;71.10;;;;;;5012993;28;20033;-76
2023/07/22 07:11:37;;;;;;;1.90;1.80;;;19.10;70.90;;;;;;5028637;28;20036;-75
2023/07/22 07:14:03;;;;;;;1.58;1.48;;;19.20;70.60;;;;;;5052518;28;20099;-75
2023/07/22 07:16:31;;;;;;;2.60;1.30;;;19.30;70.50;;;;;;5032145;28;20125;-76
2023/07/22 07:19:00;;;;;;;1.42;1.33;;;19.30;70.50;;;;;;5027495;28;20037;-75
2023/07/22 07:21:25;;;;;;;1.25;1.10;;;19.40;70.10;;;;;;5035298;28;20526;-75
2023/07/22 07:23:51;;;;;;;1.98;1.20;;;19.30;70.20;;;;;;5030648;28;20079;-76
2023/07/22 07:26:17;;;;;;;2.05;1.40;;;19.40;70.40;;;;;;5016204;28;20930;-76
2023/07/22 07:28:43;;;;;;;1.40;1.30;;;19.30;70.10;;;;;;5019464;28;20037;-76
2023/07/22 07:31:09;;;;;;;1.77;1.40;;;19.30;70.40;;;;;;5027035;28;20056;-78
2023/07/22 07:33:34;;;;;;;1.50;1.17;;;19.40;70.80;;;;;;5033957;28;20662;-77
2023/07/22 07:36:00;;;;;;;1.83;1.42;;;19.40;70.70;;;;;;5033692;28;20124;-76
2023/07/22 07:38:26;;;;;;;2.08;1.50;;;19.40;69.70;;;;;;5032804;28;20060;-76
2023/07/22 07:40:56;;;;;;;1.85;1.58;;;19.50;69.70;;;;;;5050043;28;20485;-76
2023/07/22 07:43:21;;;;;;;1.40;1.30;;;19.50;69.90;;;;;;5025425;28;20032;-76
2023/07/22 07:45:47;;;;;;;2.15;1.40;;;19.60;69.80;;;;;;5029206;28;20037;-75
2023/07/22 07:48:12;;;;;;;1.65;1.40;;;19.60;69.30;;;;;;5050144;28;20136;-77
2023/07/22 07:50:38;;;;;;;1.60;1.50;;;19.70;68.90;;;;;;5055742;28;20396;-77
2023/07/22 07:53:03;;;;;;;1.58;1.48;;;19.70;69.90;;;;;;5054484;28;20041;-78
2023/07/22 07:55:29;;;;;;;2.33;1.70;;;19.70;69.10;;;;;;5051723;28;20071;-77
2023/07/22 07:58:05;;;;;;;1.30;1.20;;;19.50;69.40;;;;;;5051332;28;20044;-79
2023/07/22 08:00:35;;;;;;;1.92;1.20;;;19.50;69.20;;;;;;5035361;28;20139;-80
2023/07/22 08:03:13;;;;;;;3.00;1.95;;;19.60;68.50;;;;;;5029000;28;20541;-79
2023/07/22 08:05:39;;;;;;;3.17;2.40;;;19.50;68.50;;;;;;5023187;28;20041;-77
2023/07/22 08:08:05;;;;;;;1.88;1.75;;;19.50;69.40;;;;;;5028433;28;20049;-79
2023/07/22 08:10:31;;;;;;;4.70;2.42;;;19.50;69.00;;;;;;5030925;28;20449;-80
2023/07/22 08:12:56;;;;;;;2.28;1.80;;;19.70;68.80;;;;;;5028888;28;20049;-81
2023/07/22 08:15:22;;;;;;;1.58;1.48;;;19.80;68.60;;;;;;5031720;28;20037;-78
2023/07/22 08:18:16;;;;;;;2.60;1.50;;;19.90;68.60;;;;;;5021645;28;20116;-77
2023/07/22 08:20:42;;;;;;;;;;;20.00;68.90;;;;;;5032508;28;20060;-77
2023/07/22 08:23:07;;;;;;;1.70;1.60;;;20.10;67.30;;;;;;4681575;28;10000492;-77
2023/07/22 08:25:33;;;;;;;1.17;1.10;;;20.10;66.80;;;;;;5034762;28;20048;-78
2023/07/22 08:27:59;;;;;;;1.30;1.20;;;20.10;66.80;;;;;;4685599;28;10000333;-78
2023/07/22 08:30:24;;;;;;;1.60;1.50;;;20.10;67.00;;;;;;5025452;28;20822;-78
2023/07/22 08:32:50;;;;;;;1.70;1.60;;;20.00;67.30;;;;;;5025167;28;20467;-78
2023/07/22 08:35:17;;;;;;;1.33;1.23;;;20.00;67.20;;;;;;5029150;28;20052;-81
2023/07/22 08:37:43;;;;;;;2.03;1.70;;;19.90;67.20;;;;;;5029214;28;20063;-81
2023/07/22 08:40:09;;;;;;;1.95;1.50;;;19.90;66.90;;;;;;5013004;28;20037;-81
2023/07/22 08:42:34;;;;;;;2.60;1.55;;;20.10;66.50;;;;;;5026987;28;20413;-80
2023/07/22 08:45:00;;;;;;;2.58;1.92;;;20.00;66.00;;;;;;5011807;28;20120;-80
2023/07/22 08:47:25;;;;;;;1.20;1.10;;;20.00;65.50;;;;;;5028084;28;20033;-80
2023/07/22 08:49:52;;;;;;;1.60;1.50;;;20.20;65.30;;;;;;5050384;28;20032;-79
2023/07/22 08:52:18;;;;;;;3.28;1.30;;;20.30;64.40;;;;;;5027675;28;20029;-80
2023/07/22 08:54:44;;;;;;;1.60;1.50;;;20.40;64.20;;;;;;5042326;28;20057;-79
2023/07/22 08:57:10;;;;;;;1.42;1.33;;;20.50;63.90;;;;;;5029561;28;20492;-82
2023/07/22 08:59:36;;;;;;;3.63;1.60;;;20.50;63.10;;;;;;4993436;28;20061;-80
2023/07/22 09:02:02;;;;;;;1.67;1.58;;;20.60;62.60;;;;;;5030603;28;20041;-81
2023/07/22 09:04:27;;;;;;;1.63;1.52;;;20.60;62.60;;;;;;5024350;28;20040;-80
2023/07/22 09:06:53;;;;;;;1.25;1.15;;;20.60;62.50;;;;;;5012729;28;20046;-80
2023/07/22 09:09:19;;;;;;;1.40;1.30;;;20.60;62.10;;;;;;5023545;28;20057;-81
2023/07/22 09:11:45;;;;;;;1.65;1.55;;;20.70;62.30;;;;;;5034931;28;20422;-82
2023/07/22 09:14:10;;;;;;;1.63;1.52;;;20.70;62.20;;;;;;5012587;28;20053;-82
2023/07/22 09:16:36;;;;;;;1.80;1.70;;;20.80;62.00;;;;;;5047613;28;20511;-82
2023/07/22 09:19:03;;;;;;;1.70;1.60;;;20.90;60.70;;;;;;4994390;28;20097;-82
2023/07/22 09:21:28;;;;;;;1.20;1.20;;;20.80;60.60;;;;;;4994569;28;20042;-82
2023/07/22 09:23:54;;;;;;;2.35;1.65;;;20.80;60.90;;;;;;5029159;28;20042;-81
2023/07/22 09:26:20;;;;;;;1.50;1.40;;;20.90;60.90;;;;;;5000106;28;20077;-82
2023/07/22 09:28:57;;;;;;;1.40;1.30;;;20.90;61.10;;;;;;5007732;28;20054;-82
2023/07/22 09:31:28;;;;;;;2.53;1.50;;;20.90;61.10;;;;;;4991009;28;20042;-83
2023/07/22 09:33:56;;;;;;;1.50;1.40;;;21.00;61.20;;;;;;5018458;28;20053;-83
2023/07/22 09:36:22;;;;;;;1.70;1.60;;;21.10;60.70;;;;;;5014841;28;20035;-83
2023/07/22 09:39:14;;;;;;;1.50;1.40;;;21.00;60.90;;;;;;4982480;28;20057;-83
2023/07/22 09:41:41;;;;;;;1.17;1.13;;;21.10;60.80;;;;;;5007403;28;20042;-83
2023/07/22 09:44:12;;;;;;;1.52;1.42;;;21.10;60.60;;;;;;5000855;28;20537;-83
2023/07/22 09:46:37;;;;;;;1.85;1.48;;;21.20;60.60;;;;;;5017341;28;20045;-82
2023/07/22 09:49:04;;;;;;;1.35;1.17;;;21.20;60.80;;;;;;4993765;28;20038;-84
2023/07/22 09:51:37;;;;;;;1.10;1.00;;;21.20;60.80;;;;;;5002444;28;20057;-84
2023/07/22 09:54:03;;;;;;;1.60;1.50;;;21.20;60.20;;;;;;4983749;28;20077;-84
2023/07/22 09:56:31;;;;;;;1.50;1.40;;;21.30;59.90;;;;;;5039561;28;20510;-84
2023/07/22 09:59:03;;;;;;;2.25;1.30;;;21.30;59.50;;;;;;4994595;28;20072;-84
2023/07/22 10:01:29;;;;;;;1.85;1.75;;;21.40;59.60;;;;;;5006538;28;20677;-84
2023/07/22 10:03:56;;;;;;;1.20;1.10;;;21.40;59.60;;;;;;5004167;28;20041;-82
2023/07/22 10:06:27;;;;;;;1.30;1.30;;;21.40;60.30;;;;;;5011501;28;20062;-86
2023/07/22 10:08:52;;;;;;;1.48;1.23;;;21.40;59.30;;;;;;5004739;28;20498;-87
2023/07/22 10:11:18;;;;;;;1.30;1.20;;;21.40;59.40;;;;;;4987984;28;20588;-85
2023/07/22 10:13:44;;;;;;;1.70;1.20;;;21.40;59.50;;;;;;5030845;28;20096;-86
2023/07/22 10:16:09;;;;;;;1.30;1.20;;;21.50;59.40;;;;;;5009115;28;20042;-87
2023/07/22 10:18:35;;;;;;;2.50;1.50;;;21.50;59.10;;;;;;5020330;28;20046;-83
2023/07/22 10:21:00;;;;;;;1.58;1.48;;;21.50;59.20;;;;;;4991292;28;20113;-83
2023/07/22 10:23:26;;;;;;;1.80;1.48;;;21.50;58.80;;;;;;5006050;28;20109;-83
2023/07/22 10:25:52;;;;;;;1.50;1.40;;;21.50;58.90;;;;;;5025149;28;20061;-87
2023/07/22 10:28:19;;;;;;;1.20;1.15;;;21.50;58.60;;;;;;4993053;28;20702;-84
2023/07/22 10:30:45;;;;;;;1.20;1.10;;;21.50;58.40;;;;;;5024197;28;20041;-86
2023/07/22 10:33:11;;;;;;;1.98;1.20;;;21.60;58.40;;;;;;4986262;28;20101;-85
2023/07/22 10:35:44;;;;;;;1.35;1.25;;;21.60;58.10;;;;;;4988197;28;20043;-84
2023/07/22 10:38:11;;;;;;;1.40;1.30;;;21.60;58.10;;;;;;4996906;28;20052;-82
2023/07/22 10:40:52;;;;;;;1.30;1.20;;;21.60;58.10;;;;;;4994886;28;20047;-78
2023/07/22 10:43:23;;;;;;;1.40;1.30;;;21.70;57.70;;;;;;4996710;28;20050;-77
2023/07/22 10:45:51;;;;;;;1.05;1.00;;;21.70;58.10;;;;;;5019359;28;20042;-78
2023/07/22 10:48:17;;;;;;;1.60;1.50;;;21.70;57.60;;;;;;5012821;28;20045;-79
2023/07/22 10:50:43;;;;;;;1.58;1.33;;;21.80;57.70;;;;;;5011265;28;20510;-79
2023/07/22 10:53:13;;;;;;;2.22;1.08;;;21.70;57.30;;;;;;4995195;28;20057;-79
2023/07/22 10:56:04;;;;;;;1.42;1.33;;;21.70;57.10;;;;;;4996125;28;20057;-79
2023/07/22 10:58:31;;;;;;;1.30;1.20;;;21.70;57.00;;;;;;5001998;28;20096;-79
2023/07/22 11:01:24;;;;;;;1.50;1.40;;;21.60;56.90;;;;;;5038433;28;20053;-78
2023/07/22 11:04:10;;;;;;;0.90;0.90;;;21.60;57.40;;;;;;5028693;28;20085;-78
2023/07/22 11:06:36;;;;;;;1.10;1.10;;;21.60;57.80;;;;;;4993182;28;20035;-78
2023/07/22 11:09:01;;;;;;;0.77;0.77;;;21.60;57.00;;;;;;5026158;28;20052;-79
2023/07/22 11:11:40;;;;;;;0.80;0.80;;;21.60;57.20;;;;;;5028259;28;20046;-78
2023/07/22 11:14:20;;;;;;;1.05;1.05;;;21.70;57.10;;;;;;4988188;28;20042;-78
2023/07/22 11:16:46;;;;;;;1.23;1.13;;;21.80;56.80;;;;;;5030242;28;20050;-79
2023/07/22 11:19:13;;;;;;;0.95;0.95;;;21.80;57.00;;;;;;4992948;28;20049;-79
2023/07/22 11:21:38;;;;;;;1.65;1.55;;;21.90;56.80;;;;;;5024402;28;20059;-79
2023/07/22 11:24:05;;;;;;;1.00;1.00;;;21.90;56.70;;;;;;4671458;28;10000090;-80
2023/07/22 11:26:31;;;;;;;1.27;1.17;;;22.00;56.30;;;;;;5010767;28;20102;-78
2023/07/22 11:28:57;;;;;;;1.30;1.00;;;21.90;56.30;;;;;;5020194;28;20118;-79
2023/07/22 11:31:30;;;;;;;1.30;1.20;;;21.90;57.10;;;;;;5007536;28;20057;-79
2023/07/22 11:33:55;;;;;;;0.98;0.98;;;21.90;56.30;;;;;;4987137;28;20046;-78
2023/07/22 11:36:21;;;;;;;1.20;1.20;;;21.90;55.90;;;;;;4982734;28;20043;-79
2023/07/22 11:38:46;;;;;;;1.17;1.08;;;22.00;55.90;;;;;;4992519;28;20523;-78
2023/07/22 11:41:12;;;;;;;1.45;1.25;;;22.00;56.70;;;;;;5001407;28;20098;-78
2023/07/22 11:43:37;;;;;;;0.88;0.88;;;22.10;55.80;;;;;;4984793;28;20061;-78
2023/07/22 11:46:05;;;;;;;1.65;0.85;;;22.10;56.30;;;;;;4991816;28;20050;-78
2023/07/22 11:48:31;;;;;;;1.95;1.00;;;22.10;56.10;;;;;;4993940;28;20052;-78
2023/07/22 11:51:00;;;;;;;0.98;0.98;;;22.10;56.20;;;;;;4986831;28;20030;-78
2023/07/22 11:53:28;;;;;;;1.30;1.20;;;22.10;56.20;;;;;;5011343;28;20101;-78
2023/07/22 11:55:57;;;;;;;1.15;0.90;;;22.20;56.30;;;;;;4991071;28;20858;-78
2023/07/22 11:58:26;;;;;;;1.40;1.00;;;22.20;56.30;;;;;;4993839;28;20054;-78
2023/07/22 12:01:06;;;;;;;0.88;0.88;;;22.20;56.30;;;;;;5022655;28;20118;-78
2023/07/22 12:03:35;;;;;;;1.00;1.00;;;22.10;56.20;;;;;;5017269;28;20042;-78
2023/07/22 12:06:02;;;;;;;1.17;1.10;;;22.20;55.90;;;;;;4983277;28;20516;-78
2023/07/22 12:08:28;;;;;;;1.15;1.10;;;22.20;55.20;;;;;;5016762;28;20115;-79
2023/07/22 12:11:00;;;;;;;1.20;1.20;;;22.20;55.30;;;;;;5006965;28;20448;-78
2023/07/22 12:13:26;;;;;;;0.82;0.80;;;22.20;55.60;;;;;;5008064;28;20136;-78
2023/07/22 12:16:01;;;;;;;0.80;0.80;;;22.20;56.00;;;;;;5026892;28;20086;-78
2023/07/22 12:18:27;;;;;;;1.02;0.85;;;22.20;56.00;;;;;;5023684;28;20077;-83
2023/07/22 12:20:52;;;;;;;1.20;1.20;;;22.20;56.50;;;;;;5032680;28;20137;-78
2023/07/22 12:23:18;;;;;;;1.00;1.00;;;22.30;56.20;;;;;;5023853;28;20450;-78
2023/07/22 12:25:44;;;;;;;1.00;1.00;;;22.30;55.70;;;;;;5046777;28;20084;-79
2023/07/22 12:28:10;;;;;;;1.10;1.10;;;22.30;55.30;;;;;;5027721;28;20038;-79
2023/07/22 12:30:36;;;;;;;1.10;1.00;;;22.40;55.50;;;;;;4673164;28;10000112;-78
2023/07/22 12:33:02;;;;;;;1.02;1.00;;;22.40;55.80;;;;;;5025507;28;20068;-77
2023/07/22 12:35:28;;;;;;;1.08;0.98;;;22.40;55.90;;;;;;5032935;28;20068;-76
2023/07/22 12:37:55;;;;;;;1.30;1.10;;;22.40;56.10;;;;;;5039943;28;20164;-77
2023/07/22 12:40:20;;;;;;;1.27;1.17;;;22.40;55.60;;;;;;5024938;28;20567;-78
2023/07/22 12:42:46;;;;;;;1.00;1.00;;;22.40;55.00;;;;;;5032334;28;20136;-76